sensor_id;sensor_type;location;lat;lon;timestamp;P1;durP1;ratioP1;P2;durP2;ratioP2
68976;SDS011;56029;52.568;13.588;2023-02-01T00:01:33;11.80;;;2.03;;
68976;SDS011;56029;52.568;13.588;2023-02-01T00:03:59;11.82;;;2.28;;
68976;SDS011;56029;52.568;13.588;2023-02-01T00:06:24;11.47;;;2.90;;
68976;SDS011;56029;52.568;13.588;2023-02-01T00:08:53;11.03;;;1.63;;
68976;SDS011;56029;52.568;13.588;2023-02-01T00:11:19;18.63;;;2.63;;
68976;SDS011;56029;52.568;13.588;2023-02-01T00:13:45;13.60;;;2.15;;
68976;SDS011;56029;52.568;13.588;2023-02-01T00:16:12;8.57;;;2.00;;
68976;SDS011;56029;52.568;13.588;2023-02-01T00:18:42;8.93;;;1.90;;
68976;SDS011;56029;52.568;13.588;2023-02-01T00:21:08;11.68;;;2.28;;
68976;SDS011;56029;52.568;13.588;2023-02-01T00:23:35;11.13;;;1.90;;
68976;SDS011;56029;52.568;13.588;2023-02-01T00:26:06;12.98;;;2.10;;
68976;SDS011;56029;52.568;13.588;2023-02-01T00:28:36;15.52;;;2.53;;
68976;SDS011;56029;52.568;13.588;2023-02-01T00:31:02;9.60;;;2.10;;
68976;SDS011;56029;52.568;13.588;2023-02-01T00:33:29;9.13;;;1.90;;
68976;SDS011;56029;52.568;13.588;2023-02-01T00:35:56;13.33;;;2.23;;
68976;SDS011;56029;52.568;13.588;2023-02-01T00:38:23;12.07;;;2.30;;
68976;SDS011;56029;52.568;13.588;2023-02-01T00:40:48;6.27;;;1.70;;
68976;SDS011;56029;52.568;13.588;2023-02-01T00:43:14;5.13;;;1.80;;
68976;SDS011;56029;52.568;13.588;2023-02-01T00:45:39;12.10;;;1.87;;
68976;SDS011;56029;52.568;13.588;2023-02-01T00:48:05;10.40;;;2.07;;
68976;SDS011;56029;52.568;13.588;2023-02-01T00:50:30;7.90;;;1.42;;
68976;SDS011;56029;52.568;13.588;2023-02-01T00:52:56;11.13;;;1.90;;
68976;SDS011;56029;52.568;13.588;2023-02-01T00:55:21;11.23;;;2.20;;
68976;SDS011;56029;52.568;13.588;2023-02-01T00:57:47;6.53;;;1.60;;
68976;SDS011;56029;52.568;13.588;2023-02-01T01:00:12;8.23;;;1.60;;
68976;SDS011;56029;52.568;13.588;2023-02-01T01:02:38;10.77;;;1.55;;
68976;SDS011;56029;52.568;13.588;2023-02-01T01:05:04;5.97;;;1.80;;
68976;SDS011;56029;52.568;13.588;2023-02-01T01:07:29;9.77;;;1.23;;
68976;SDS011;56029;52.568;13.588;2023-02-01T01:09:55;9.43;;;1.70;;
68976;SDS011;56029;52.568;13.588;2023-02-01T01:12:21;10.40;;;1.80;;
68976;SDS011;56029;52.568;13.588;2023-02-01T01:14:46;6.90;;;1.13;;
68976;SDS011;56029;52.568;13.588;2023-02-01T01:17:12;8.93;;;1.60;;
68976;SDS011;56029;52.568;13.588;2023-02-01T01:19:37;8.07;;;1.40;;
68976;SDS011;56029;52.568;13.588;2023-02-01T01:22:03;8.05;;;1.48;;
68976;SDS011;56029;52.568;13.588;2023-02-01T01:24:28;8.80;;;1.87;;
68976;SDS011;56029;52.568;13.588;2023-02-01T01:26:54;8.30;;;1.60;;
68976;SDS011;56029;52.568;13.588;2023-02-01T01:29:19;9.20;;;1.47;;
68976;SDS011;56029;52.568;13.588;2023-02-01T01:31:45;13.37;;;1.90;;
68976;SDS011;56029;52.568;13.588;2023-02-01T01:34:10;6.50;;;1.47;;
68976;SDS011;56029;52.568;13.588;2023-02-01T01:36:36;7.40;;;1.77;;
68976;SDS011;56029;52.568;13.588;2023-02-01T01:39:01;12.70;;;1.70;;
68976;SDS011;56029;52.568;13.588;2023-02-01T01:41:31;11.18;;;1.77;;
68976;SDS011;56029;52.568;13.588;2023-02-01T01:43:58;8.57;;;1.50;;
68976;SDS011;56029;52.568;13.588;2023-02-01T01:46:27;10.60;;;2.33;;
68976;SDS011;56029;52.568;13.588;2023-02-01T01:49:05;8.90;;;1.60;;
68976;SDS011;56029;52.568;13.588;2023-02-01T01:51:37;8.05;;;1.85;;
68976;SDS011;56029;52.568;13.588;2023-02-01T01:54:27;10.25;;;1.67;;
68976;SDS011;56029;52.568;13.588;2023-02-01T01:56:57;9.83;;;2.10;;
68976;SDS011;56029;52.568;13.588;2023-02-01T01:59:31;8.80;;;1.75;;
68976;SDS011;56029;52.568;13.588;2023-02-01T02:02:01;8.02;;;1.58;;
68976;SDS011;56029;52.568;13.588;2023-02-01T02:04:26;11.40;;;1.67;;
68976;SDS011;56029;52.568;13.588;2023-02-01T02:07:03;8.57;;;1.42;;
68976;SDS011;56029;52.568;13.588;2023-02-01T02:09:30;11.18;;;2.20;;
68976;SDS011;56029;52.568;13.588;2023-02-01T02:11:56;11.70;;;2.10;;
68976;SDS011;56029;52.568;13.588;2023-02-01T02:14:22;12.53;;;1.83;;
68976;SDS011;56029;52.568;13.588;2023-02-01T02:16:52;7.95;;;1.50;;
68976;SDS011;56029;52.568;13.588;2023-02-01T02:22:12;9.87;;;1.90;;
68976;SDS011;56029;52.568;13.588;2023-02-01T02:31:15;11.68;;;1.70;;
68976;SDS011;56029;52.568;13.588;2023-02-01T02:42:00;14.05;;;1.95;;
68976;SDS011;56029;52.568;13.588;2023-02-01T02:44:49;7.88;;;1.90;;
68976;SDS011;56029;52.568;13.588;2023-02-01T02:48:15;10.27;;;2.22;;
68976;SDS011;56029;52.568;13.588;2023-02-01T02:54:08;12.45;;;3.25;;
68976;SDS011;56029;52.568;13.588;2023-02-01T02:56:57;10.50;;;1.85;;
68976;SDS011;56029;52.568;13.588;2023-02-01T02:59:43;11.73;;;2.42;;
68976;SDS011;56029;52.568;13.588;2023-02-01T03:02:29;9.98;;;1.80;;
68976;SDS011;56029;52.568;13.588;2023-02-01T03:05:15;9.47;;;1.90;;
68976;SDS011;56029;52.568;13.588;2023-02-01T03:10:11;8.38;;;1.70;;
68976;SDS011;56029;52.568;13.588;2023-02-01T03:12:48;9.45;;;2.15;;
68976;SDS011;56029;52.568;13.588;2023-02-01T03:15:20;9.73;;;1.93;;
68976;SDS011;56029;52.568;13.588;2023-02-01T03:17:51;9.90;;;2.22;;
68976;SDS011;56029;52.568;13.588;2023-02-01T03:20:20;9.90;;;2.00;;
68976;SDS011;56029;52.568;13.588;2023-02-01T03:22:48;10.48;;;1.98;;
68976;SDS011;56029;52.568;13.588;2023-02-01T03:25:18;13.30;;;2.15;;
68976;SDS011;56029;52.568;13.588;2023-02-01T03:27:48;17.63;;;2.37;;
68976;SDS011;56029;52.568;13.588;2023-02-01T03:30:51;15.00;;;2.10;;
68976;SDS011;56029;52.568;13.588;2023-02-01T03:33:14;9.40;;;2.20;;
68976;SDS011;56029;52.568;13.588;2023-02-01T03:41:25;9.87;;;2.13;;
68976;SDS011;56029;52.568;13.588;2023-02-01T03:43:55;6.93;;;1.23;;
68976;SDS011;56029;52.568;13.588;2023-02-01T03:46:46;13.13;;;2.10;;
68976;SDS011;56029;52.568;13.588;2023-02-01T03:49:14;10.93;;;1.95;;
68976;SDS011;56029;52.568;13.588;2023-02-01T03:51:45;10.18;;;2.13;;
68976;SDS011;56029;52.568;13.588;2023-02-01T03:54:13;7.67;;;1.60;;
68976;SDS011;56029;52.568;13.588;2023-02-01T03:56:41;11.90;;;2.15;;
68976;SDS011;56029;52.568;13.588;2023-02-01T03:59:09;8.52;;;1.83;;
68976;SDS011;56029;52.568;13.588;2023-02-01T04:01:35;9.70;;;1.85;;
68976;SDS011;56029;52.568;13.588;2023-02-01T04:04:01;12.23;;;2.00;;
68976;SDS011;56029;52.568;13.588;2023-02-01T04:06:27;14.60;;;1.85;;
68976;SDS011;56029;52.568;13.588;2023-02-01T04:08:52;13.67;;;2.43;;
68976;SDS011;56029;52.568;13.588;2023-02-01T04:11:18;6.20;;;1.60;;
68976;SDS011;56029;52.568;13.588;2023-02-01T04:13:44;11.47;;;2.13;;
68976;SDS011;56029;52.568;13.588;2023-02-01T04:16:10;10.93;;;1.83;;
68976;SDS011;56029;52.568;13.588;2023-02-01T04:18:35;11.47;;;2.10;;
68976;SDS011;56029;52.568;13.588;2023-02-01T04:21:01;9.95;;;1.95;;
68976;SDS011;56029;52.568;13.588;2023-02-01T04:23:28;7.53;;;2.22;;
68976;SDS011;56029;52.568;13.588;2023-02-01T04:25:58;13.37;;;2.40;;
68976;SDS011;56029;52.568;13.588;2023-02-01T04:28:25;9.75;;;2.22;;
68976;SDS011;56029;52.568;13.588;2023-02-01T04:30:51;15.07;;;2.47;;
68976;SDS011;56029;52.568;13.588;2023-02-01T04:33:16;9.65;;;2.22;;
68976;SDS011;56029;52.568;13.588;2023-02-01T04:35:41;10.87;;;2.13;;
68976;SDS011;56029;52.568;13.588;2023-02-01T04:38:07;10.57;;;2.07;;
68976;SDS011;56029;52.568;13.588;2023-02-01T04:40:33;14.45;;;2.40;;
68976;SDS011;56029;52.568;13.588;2023-02-01T04:43:00;10.17;;;1.93;;
68976;SDS011;56029;52.568;13.588;2023-02-01T04:45:26;11.57;;;2.75;;
68976;SDS011;56029;52.568;13.588;2023-02-01T04:47:52;13.03;;;2.30;;
68976;SDS011;56029;52.568;13.588;2023-02-01T04:50:17;15.27;;;2.67;;
68976;SDS011;56029;52.568;13.588;2023-02-01T04:52:43;10.75;;;2.08;;
68976;SDS011;56029;52.568;13.588;2023-02-01T04:55:10;12.43;;;2.55;;
68976;SDS011;56029;52.568;13.588;2023-02-01T04:57:36;12.65;;;2.10;;
68976;SDS011;56029;52.568;13.588;2023-02-01T05:00:04;12.63;;;2.20;;
68976;SDS011;56029;52.568;13.588;2023-02-01T05:02:30;12.88;;;2.60;;
68976;SDS011;56029;52.568;13.588;2023-02-01T05:04:57;14.98;;;2.28;;
68976;SDS011;56029;52.568;13.588;2023-02-01T05:07:23;9.10;;;2.13;;
68976;SDS011;56029;52.568;13.588;2023-02-01T05:09:49;10.33;;;2.23;;
68976;SDS011;56029;52.568;13.588;2023-02-01T05:12:14;13.48;;;2.10;;
68976;SDS011;56029;52.568;13.588;2023-02-01T05:14:59;13.15;;;2.40;;
68976;SDS011;56029;52.568;13.588;2023-02-01T05:17:24;12.27;;;2.20;;
68976;SDS011;56029;52.568;13.588;2023-02-01T05:19:50;11.43;;;2.60;;
68976;SDS011;56029;52.568;13.588;2023-02-01T05:22:15;11.93;;;2.23;;
68976;SDS011;56029;52.568;13.588;2023-02-01T05:24:41;15.57;;;2.47;;
68976;SDS011;56029;52.568;13.588;2023-02-01T05:27:06;13.40;;;2.25;;
68976;SDS011;56029;52.568;13.588;2023-02-01T05:29:32;12.40;;;2.30;;
68976;SDS011;56029;52.568;13.588;2023-02-01T05:31:57;14.03;;;2.23;;
68976;SDS011;56029;52.568;13.588;2023-02-01T05:34:23;15.60;;;2.53;;
68976;SDS011;56029;52.568;13.588;2023-02-01T05:36:49;12.63;;;2.27;;
68976;SDS011;56029;52.568;13.588;2023-02-01T05:39:14;10.43;;;2.47;;
68976;SDS011;56029;52.568;13.588;2023-02-01T05:41:40;7.72;;;1.83;;
68976;SDS011;56029;52.568;13.588;2023-02-01T05:44:05;12.30;;;2.40;;
68976;SDS011;56029;52.568;13.588;2023-02-01T05:46:33;11.75;;;2.38;;
68976;SDS011;56029;52.568;13.588;2023-02-01T05:48:59;10.25;;;2.35;;
68976;SDS011;56029;52.568;13.588;2023-02-01T05:51:25;12.77;;;2.13;;
68976;SDS011;56029;52.568;13.588;2023-02-01T05:53:50;11.33;;;2.40;;
68976;SDS011;56029;52.568;13.588;2023-02-01T05:56:16;11.63;;;2.28;;
68976;SDS011;56029;52.568;13.588;2023-02-01T05:58:41;11.67;;;2.27;;
68976;SDS011;56029;52.568;13.588;2023-02-01T06:01:07;10.73;;;2.00;;
68976;SDS011;56029;52.568;13.588;2023-02-01T06:03:32;9.03;;;1.77;;
68976;SDS011;56029;52.568;13.588;2023-02-01T06:05:58;11.80;;;2.20;;
68976;SDS011;56029;52.568;13.588;2023-02-01T06:08:25;12.43;;;2.50;;
68976;SDS011;56029;52.568;13.588;2023-02-01T06:10:58;12.10;;;2.85;;
68976;SDS011;56029;52.568;13.588;2023-02-01T06:13:28;10.88;;;2.72;;
68976;SDS011;56029;52.568;13.588;2023-02-01T06:15:54;13.30;;;2.20;;
68976;SDS011;56029;52.568;13.588;2023-02-01T06:18:21;15.07;;;2.90;;
68976;SDS011;56029;52.568;13.588;2023-02-01T06:20:51;11.45;;;2.50;;
68976;SDS011;56029;52.568;13.588;2023-02-01T06:23:17;12.18;;;2.78;;
68976;SDS011;56029;52.568;13.588;2023-02-01T06:25:43;11.40;;;2.30;;
68976;SDS011;56029;52.568;13.588;2023-02-01T06:28:10;13.63;;;2.40;;
68976;SDS011;56029;52.568;13.588;2023-02-01T06:30:35;10.77;;;2.47;;
68976;SDS011;56029;52.568;13.588;2023-02-01T06:33:01;7.30;;;1.90;;
68976;SDS011;56029;52.568;13.588;2023-02-01T06:35:27;11.10;;;2.33;;
68976;SDS011;56029;52.568;13.588;2023-02-01T06:37:52;14.30;;;2.73;;
68976;SDS011;56029;52.568;13.588;2023-02-01T06:40:18;13.07;;;2.42;;
68976;SDS011;56029;52.568;13.588;2023-02-01T06:42:43;13.30;;;2.80;;
68976;SDS011;56029;52.568;13.588;2023-02-01T06:45:09;15.48;;;3.08;;
68976;SDS011;56029;52.568;13.588;2023-02-01T06:47:35;14.07;;;2.80;;
68976;SDS011;56029;52.568;13.588;2023-02-01T06:50:00;12.60;;;2.50;;
68976;SDS011;56029;52.568;13.588;2023-02-01T06:52:26;10.17;;;2.57;;
68976;SDS011;56029;52.568;13.588;2023-02-01T06:54:52;11.73;;;2.63;;
68976;SDS011;56029;52.568;13.588;2023-02-01T06:57:17;13.60;;;2.43;;
68976;SDS011;56029;52.568;13.588;2023-02-01T06:59:43;12.67;;;2.73;;
68976;SDS011;56029;52.568;13.588;2023-02-01T07:02:09;15.33;;;2.40;;
68976;SDS011;56029;52.568;13.588;2023-02-01T07:04:36;13.87;;;2.87;;
68976;SDS011;56029;52.568;13.588;2023-02-01T07:07:05;15.00;;;2.92;;
68976;SDS011;56029;52.568;13.588;2023-02-01T07:09:30;10.83;;;2.30;;
68976;SDS011;56029;52.568;13.588;2023-02-01T07:11:56;10.63;;;2.60;;
68976;SDS011;56029;52.568;13.588;2023-02-01T07:14:22;11.77;;;2.33;;
68976;SDS011;56029;52.568;13.588;2023-02-01T07:16:47;12.23;;;2.60;;
68976;SDS011;56029;52.568;13.588;2023-02-01T07:19:13;13.13;;;2.53;;
68976;SDS011;56029;52.568;13.588;2023-02-01T07:21:39;11.50;;;2.40;;
68976;SDS011;56029;52.568;13.588;2023-02-01T07:24:04;11.80;;;2.63;;
68976;SDS011;56029;52.568;13.588;2023-02-01T07:26:30;13.52;;;3.00;;
68976;SDS011;56029;52.568;13.588;2023-02-01T07:28:56;11.07;;;2.53;;
68976;SDS011;56029;52.568;13.588;2023-02-01T07:31:21;9.13;;;2.33;;
68976;SDS011;56029;52.568;13.588;2023-02-01T07:33:47;13.50;;;3.05;;
68976;SDS011;56029;52.568;13.588;2023-02-01T07:36:16;15.18;;;4.22;;
68976;SDS011;56029;52.568;13.588;2023-02-01T07:38:43;10.20;;;3.75;;
68976;SDS011;56029;52.568;13.588;2023-02-01T07:41:09;10.87;;;2.93;;
68976;SDS011;56029;52.568;13.588;2023-02-01T07:43:35;7.53;;;2.13;;
68976;SDS011;56029;52.568;13.588;2023-02-01T07:46:01;10.50;;;3.25;;
68976;SDS011;56029;52.568;13.588;2023-02-01T07:48:28;12.35;;;3.25;;
68976;SDS011;56029;52.568;13.588;2023-02-01T07:50:58;16.37;;;3.17;;
68976;SDS011;56029;52.568;13.588;2023-02-01T07:53:24;12.95;;;2.70;;
68976;SDS011;56029;52.568;13.588;2023-02-01T07:55:49;11.57;;;3.33;;
68976;SDS011;56029;52.568;13.588;2023-02-01T07:58:15;12.00;;;2.70;;
68976;SDS011;56029;52.568;13.588;2023-02-01T08:00:40;10.43;;;2.73;;
68976;SDS011;56029;52.568;13.588;2023-02-01T08:03:25;9.77;;;2.83;;
68976;SDS011;56029;52.568;13.588;2023-02-01T08:05:54;12.73;;;3.10;;
68976;SDS011;56029;52.568;13.588;2023-02-01T08:08:20;10.07;;;2.80;;
68976;SDS011;56029;52.568;13.588;2023-02-01T08:10:47;10.02;;;3.22;;
68976;SDS011;56029;52.568;13.588;2023-02-01T08:13:12;11.70;;;3.47;;
68976;SDS011;56029;52.568;13.588;2023-02-01T08:15:38;9.63;;;3.30;;
68976;SDS011;56029;52.568;13.588;2023-02-01T08:18:04;7.67;;;2.90;;
68976;SDS011;56029;52.568;13.588;2023-02-01T08:20:29;11.93;;;2.87;;
68976;SDS011;56029;52.568;13.588;2023-02-01T08:22:55;7.82;;;2.90;;
68976;SDS011;56029;52.568;13.588;2023-02-01T08:25:21;9.87;;;3.70;;
68976;SDS011;56029;52.568;13.588;2023-02-01T08:27:47;7.72;;;3.28;;
68976;SDS011;56029;52.568;13.588;2023-02-01T08:30:12;14.23;;;3.57;;
68976;SDS011;56029;52.568;13.588;2023-02-01T08:32:38;9.65;;;3.42;;
68976;SDS011;56029;52.568;13.588;2023-02-01T08:35:04;6.93;;;2.90;;
68976;SDS011;56029;52.568;13.588;2023-02-01T08:37:30;11.07;;;4.20;;
68976;SDS011;56029;52.568;13.588;2023-02-01T08:39:56;12.10;;;3.87;;
68976;SDS011;56029;52.568;13.588;2023-02-01T08:42:22;11.73;;;3.90;;
68976;SDS011;56029;52.568;13.588;2023-02-01T08:45:06;10.93;;;3.50;;
68976;SDS011;56029;52.568;13.588;2023-02-01T08:47:33;10.55;;;3.63;;
68976;SDS011;56029;52.568;13.588;2023-02-01T08:49:59;9.63;;;3.50;;
68976;SDS011;56029;52.568;13.588;2023-02-01T08:52:25;5.22;;;1.88;;
68976;SDS011;56029;52.568;13.588;2023-02-01T08:54:50;5.28;;;1.95;;
68976;SDS011;56029;52.568;13.588;2023-02-01T08:57:16;8.17;;;2.40;;
68976;SDS011;56029;52.568;13.588;2023-02-01T08:59:42;8.98;;;2.58;;
68976;SDS011;56029;52.568;13.588;2023-02-01T09:02:16;6.70;;;2.60;;
68976;SDS011;56029;52.568;13.588;2023-02-01T09:04:42;7.60;;;2.50;;
68976;SDS011;56029;52.568;13.588;2023-02-01T09:07:08;7.95;;;2.85;;
68976;SDS011;56029;52.568;13.588;2023-02-01T09:09:34;9.00;;;3.10;;
68976;SDS011;56029;52.568;13.588;2023-02-01T09:12:00;6.60;;;2.70;;
68976;SDS011;56029;52.568;13.588;2023-02-01T09:14:25;5.60;;;1.83;;
68976;SDS011;56029;52.568;13.588;2023-02-01T09:16:51;4.55;;;1.80;;
68976;SDS011;56029;52.568;13.588;2023-02-01T09:19:16;6.70;;;2.30;;
68976;SDS011;56029;52.568;13.588;2023-02-01T09:21:42;4.63;;;1.77;;
68976;SDS011;56029;52.568;13.588;2023-02-01T09:24:09;3.60;;;1.40;;
68976;SDS011;56029;52.568;13.588;2023-02-01T09:26:36;5.93;;;2.00;;
68976;SDS011;56029;52.568;13.588;2023-02-01T09:29:02;4.40;;;2.30;;
68976;SDS011;56029;52.568;13.588;2023-02-01T09:31:29;5.72;;;2.40;;
68976;SDS011;56029;52.568;13.588;2023-02-01T09:33:55;5.10;;;1.70;;
68976;SDS011;56029;52.568;13.588;2023-02-01T09:36:21;4.45;;;1.85;;
68976;SDS011;56029;52.568;13.588;2023-02-01T09:38:48;5.07;;;2.00;;
68976;SDS011;56029;52.568;13.588;2023-02-01T09:41:24;6.65;;;2.10;;
68976;SDS011;56029;52.568;13.588;2023-02-01T09:44:00;5.03;;;1.60;;
68976;SDS011;56029;52.568;13.588;2023-02-01T09:46:41;7.03;;;2.33;;
68976;SDS011;56029;52.568;13.588;2023-02-01T09:49:10;7.65;;;1.70;;
68976;SDS011;56029;52.568;13.588;2023-02-01T09:51:44;4.53;;;1.60;;
68976;SDS011;56029;52.568;13.588;2023-02-01T09:54:17;3.95;;;1.52;;
68976;SDS011;56029;52.568;13.588;2023-02-01T09:56:47;3.58;;;1.40;;
68976;SDS011;56029;52.568;13.588;2023-02-01T09:59:29;4.45;;;1.50;;
68976;SDS011;56029;52.568;13.588;2023-02-01T10:02:00;3.58;;;1.50;;
68976;SDS011;56029;52.568;13.588;2023-02-01T10:04:28;2.73;;;1.10;;
68976;SDS011;56029;52.568;13.588;2023-02-01T10:07:03;2.60;;;1.20;;
68976;SDS011;56029;52.568;13.588;2023-02-01T10:09:42;6.68;;;1.65;;
68976;SDS011;56029;52.568;13.588;2023-02-01T10:12:33;2.47;;;0.98;;
68976;SDS011;56029;52.568;13.588;2023-02-01T10:15:24;4.00;;;1.20;;
68976;SDS011;56029;52.568;13.588;2023-02-01T10:23:59;3.63;;;1.10;;
68976;SDS011;56029;52.568;13.588;2023-02-01T10:26:37;4.53;;;1.30;;
68976;SDS011;56029;52.568;13.588;2023-02-01T10:29:12;3.63;;;1.15;;
68976;SDS011;56029;52.568;13.588;2023-02-01T10:31:43;1.60;;;1.10;;
68976;SDS011;56029;52.568;13.588;2023-02-01T10:34:17;4.15;;;1.67;;
68976;SDS011;56029;52.568;13.588;2023-02-01T10:36:52;4.82;;;1.70;;
68976;SDS011;56029;52.568;13.588;2023-02-01T10:39:20;5.05;;;1.25;;
68976;SDS011;56029;52.568;13.588;2023-02-01T10:41:46;7.72;;;2.53;;
68976;SDS011;56029;52.568;13.588;2023-02-01T10:44:14;6.97;;;2.23;;
68976;SDS011;56029;52.568;13.588;2023-02-01T10:46:50;6.15;;;1.73;;
68976;SDS011;56029;52.568;13.588;2023-02-01T10:49:18;4.88;;;1.77;;
68976;SDS011;56029;52.568;13.588;2023-02-01T10:51:51;5.53;;;1.90;;
68976;SDS011;56029;52.568;13.588;2023-02-01T10:54:35;4.28;;;1.00;;
68976;SDS011;56029;52.568;13.588;2023-02-01T10:57:24;7.73;;;1.70;;
68976;SDS011;56029;52.568;13.588;2023-02-01T10:59:53;5.15;;;1.55;;
68976;SDS011;56029;52.568;13.588;2023-02-01T11:02:26;5.07;;;1.63;;
68976;SDS011;56029;52.568;13.588;2023-02-01T11:05:08;4.40;;;1.10;;
68976;SDS011;56029;52.568;13.588;2023-02-01T11:07:37;6.30;;;1.60;;
68976;SDS011;56029;52.568;13.588;2023-02-01T11:13:03;3.58;;;1.20;;
68976;SDS011;56029;52.568;13.588;2023-02-01T11:15:29;5.90;;;1.50;;
68976;SDS011;56029;52.568;13.588;2023-02-01T11:17:55;3.93;;;1.30;;
68976;SDS011;56029;52.568;13.588;2023-02-01T11:20:34;5.72;;;2.60;;
68976;SDS011;56029;52.568;13.588;2023-02-01T11:23:08;6.13;;;1.35;;
68976;SDS011;56029;52.568;13.588;2023-02-01T11:25:39;5.43;;;1.92;;
68976;SDS011;56029;52.568;13.588;2023-02-01T11:28:13;5.27;;;1.70;;
68976;SDS011;56029;52.568;13.588;2023-02-01T11:30:41;5.70;;;1.70;;
68976;SDS011;56029;52.568;13.588;2023-02-01T11:33:12;5.93;;;1.30;;
68976;SDS011;56029;52.568;13.588;2023-02-01T11:35:40;8.82;;;2.50;;
68976;SDS011;56029;52.568;13.588;2023-02-01T11:41:19;4.70;;;1.50;;
68976;SDS011;56029;52.568;13.588;2023-02-01T11:43:52;7.07;;;2.08;;
68976;SDS011;56029;52.568;13.588;2023-02-01T11:46:25;5.32;;;1.77;;
68976;SDS011;56029;52.568;13.588;2023-02-01T11:48:55;5.03;;;1.90;;
68976;SDS011;56029;52.568;13.588;2023-02-01T11:51:29;4.72;;;1.73;;
68976;SDS011;56029;52.568;13.588;2023-02-01T11:54:28;5.47;;;1.93;;
68976;SDS011;56029;52.568;13.588;2023-02-01T11:57:19;6.75;;;1.98;;
68976;SDS011;56029;52.568;13.588;2023-02-01T12:11:45;6.82;;;1.70;;
68976;SDS011;56029;52.568;13.588;2023-02-01T12:14:24;10.93;;;2.20;;
68976;SDS011;56029;52.568;13.588;2023-02-01T12:20:28;8.63;;;1.90;;
68976;SDS011;56029;52.568;13.588;2023-02-01T12:23:17;7.20;;;1.57;;
68976;SDS011;56029;52.568;13.588;2023-02-01T12:31:57;5.30;;;1.60;;
68976;SDS011;56029;52.568;13.588;2023-02-01T12:34:46;6.53;;;1.88;;
68976;SDS011;56029;52.568;13.588;2023-02-01T12:37:44;6.63;;;1.60;;
68976;SDS011;56029;52.568;13.588;2023-02-01T12:40:28;2.85;;;1.10;;
68976;SDS011;56029;52.568;13.588;2023-02-01T12:43:18;4.25;;;1.60;;
68976;SDS011;56029;52.568;13.588;2023-02-01T12:45:55;5.22;;;1.52;;
68976;SDS011;56029;52.568;13.588;2023-02-01T12:48:29;9.15;;;2.55;;
68976;SDS011;56029;52.568;13.588;2023-02-01T12:51:01;5.07;;;2.10;;
68976;SDS011;56029;52.568;13.588;2023-02-01T12:53:37;6.40;;;2.03;;
68976;SDS011;56029;52.568;13.588;2023-02-01T12:56:30;7.10;;;1.80;;
68976;SDS011;56029;52.568;13.588;2023-02-01T12:59:02;6.70;;;1.95;;
68976;SDS011;56029;52.568;13.588;2023-02-01T13:01:35;3.50;;;1.38;;
68976;SDS011;56029;52.568;13.588;2023-02-01T13:04:14;5.73;;;1.77;;
68976;SDS011;56029;52.568;13.588;2023-02-01T13:06:46;2.30;;;0.90;;
68976;SDS011;56029;52.568;13.588;2023-02-01T13:09:28;2.58;;;0.70;;
68976;SDS011;56029;52.568;13.588;2023-02-01T13:12:11;2.15;;;0.55;;
68976;SDS011;56029;52.568;13.588;2023-02-01T13:14:55;2.42;;;0.60;;
68976;SDS011;56029;52.568;13.588;2023-02-01T13:17:29;2.83;;;1.00;;
68976;SDS011;56029;52.568;13.588;2023-02-01T13:19:59;1.58;;;0.65;;
68976;SDS011;56029;52.568;13.588;2023-02-01T13:22:36;3.33;;;0.70;;
68976;SDS011;56029;52.568;13.588;2023-02-01T13:27:34;1.67;;;0.90;;
68976;SDS011;56029;52.568;13.588;2023-02-01T13:30:01;2.90;;;0.93;;
68976;SDS011;56029;52.568;13.588;2023-02-01T13:32:55;1.77;;;0.75;;
68976;SDS011;56029;52.568;13.588;2023-02-01T13:35:37;1.30;;;0.70;;
68976;SDS011;56029;52.568;13.588;2023-02-01T13:41:14;6.60;;;2.90;;
68976;SDS011;56029;52.568;13.588;2023-02-01T13:43:54;4.40;;;1.70;;
68976;SDS011;56029;52.568;13.588;2023-02-01T13:46:26;4.10;;;1.30;;
68976;SDS011;56029;52.568;13.588;2023-02-01T13:48:54;5.43;;;1.92;;
68976;SDS011;56029;52.568;13.588;2023-02-01T13:51:36;5.40;;;2.27;;
68976;SDS011;56029;52.568;13.588;2023-02-01T13:54:06;5.97;;;2.13;;
68976;SDS011;56029;52.568;13.588;2023-02-01T13:56:42;9.05;;;2.90;;
68976;SDS011;56029;52.568;13.588;2023-02-01T14:05:12;9.10;;;3.33;;
68976;SDS011;56029;52.568;13.588;2023-02-01T14:11:02;12.93;;;3.70;;
68976;SDS011;56029;52.568;13.588;2023-02-01T14:13:33;13.68;;;4.18;;
68976;SDS011;56029;52.568;13.588;2023-02-01T14:34:26;8.30;;;2.17;;
68976;SDS011;56029;52.568;13.588;2023-02-01T14:36:58;6.30;;;2.10;;
68976;SDS011;56029;52.568;13.588;2023-02-01T14:39:36;6.15;;;1.92;;
68976;SDS011;56029;52.568;13.588;2023-02-01T14:42:24;8.90;;;2.72;;
68976;SDS011;56029;52.568;13.588;2023-02-01T14:44:54;11.20;;;2.85;;
68976;SDS011;56029;52.568;13.588;2023-02-01T14:47:38;10.75;;;2.80;;
68976;SDS011;56029;52.568;13.588;2023-02-01T14:50:10;11.43;;;3.13;;
68976;SDS011;56029;52.568;13.588;2023-02-01T14:55:36;8.10;;;3.00;;
68976;SDS011;56029;52.568;13.588;2023-02-01T15:01:31;11.82;;;4.10;;
68976;SDS011;56029;52.568;13.588;2023-02-01T15:04:05;11.50;;;3.42;;
68976;SDS011;56029;52.568;13.588;2023-02-01T15:11:53;14.17;;;3.50;;
68976;SDS011;56029;52.568;13.588;2023-02-01T15:14:25;11.75;;;2.90;;
68976;SDS011;56029;52.568;13.588;2023-02-01T15:16:52;11.65;;;3.00;;
68976;SDS011;56029;52.568;13.588;2023-02-01T15:19:20;10.98;;;3.42;;
68976;SDS011;56029;52.568;13.588;2023-02-01T15:21:52;10.65;;;2.88;;
68976;SDS011;56029;52.568;13.588;2023-02-01T15:24:19;8.67;;;2.70;;
68976;SDS011;56029;52.568;13.588;2023-02-01T15:26:56;10.45;;;2.42;;
68976;SDS011;56029;52.568;13.588;2023-02-01T15:29:28;8.63;;;2.53;;
68976;SDS011;56029;52.568;13.588;2023-02-01T15:31:58;10.27;;;2.95;;
68976;SDS011;56029;52.568;13.588;2023-02-01T15:34:37;6.57;;;2.55;;
68976;SDS011;56029;52.568;13.588;2023-02-01T15:37:14;6.53;;;1.90;;
68976;SDS011;56029;52.568;13.588;2023-02-01T15:45:19;5.10;;;1.80;;
68976;SDS011;56029;52.568;13.588;2023-02-01T15:47:49;5.38;;;2.22;;
68976;SDS011;56029;52.568;13.588;2023-02-01T15:50:18;5.47;;;1.83;;
68976;SDS011;56029;52.568;13.588;2023-02-01T15:52:49;5.35;;;1.90;;
68976;SDS011;56029;52.568;13.588;2023-02-01T15:58:08;4.20;;;1.88;;
68976;SDS011;56029;52.568;13.588;2023-02-01T16:00:45;5.35;;;2.00;;
68976;SDS011;56029;52.568;13.588;2023-02-01T16:03:25;4.37;;;1.90;;
68976;SDS011;56029;52.568;13.588;2023-02-01T16:05:56;4.65;;;1.65;;
68976;SDS011;56029;52.568;13.588;2023-02-01T16:08:25;3.67;;;1.40;;
68976;SDS011;56029;52.568;13.588;2023-02-01T16:10:53;3.38;;;1.48;;
68976;SDS011;56029;52.568;13.588;2023-02-01T16:13:27;2.22;;;1.02;;
68976;SDS011;56029;52.568;13.588;2023-02-01T16:15:52;2.43;;;1.23;;
68976;SDS011;56029;52.568;13.588;2023-02-01T16:18:18;3.87;;;1.47;;
68976;SDS011;56029;52.568;13.588;2023-02-01T16:20:43;5.83;;;1.97;;
68976;SDS011;56029;52.568;13.588;2023-02-01T16:23:09;3.40;;;1.23;;
68976;SDS011;56029;52.568;13.588;2023-02-01T16:25:36;3.33;;;1.40;;
68976;SDS011;56029;52.568;13.588;2023-02-01T16:28:03;3.07;;;1.50;;
68976;SDS011;56029;52.568;13.588;2023-02-01T16:30:30;1.77;;;1.10;;
68976;SDS011;56029;52.568;13.588;2023-02-01T16:32:56;2.47;;;1.20;;
68976;SDS011;56029;52.568;13.588;2023-02-01T16:35:25;2.92;;;1.50;;
68976;SDS011;56029;52.568;13.588;2023-02-01T16:37:52;4.70;;;0.97;;
68976;SDS011;56029;52.568;13.588;2023-02-01T16:40:18;1.55;;;0.88;;
68976;SDS011;56029;52.568;13.588;2023-02-01T16:42:47;2.40;;;1.45;;